Main page
METAR-TAF:

METAR-TAF

Airports :

Ouagadougou Airport

Ouagadougou, Burkina Faso

latitude: 12-21N, longitude: 001-31W, elevation: 316 m

Current weather observation

The report was made 50 minutes ago, at 23:00 UTC
Calm wind
Temperature 23°C
Humidity 50%
Pressure 1013 hPa
Visibility: 3500 m
widespread dust

METAR: DFFD 282300Z 00000KT 3500 DU NSC 23/12 Q1013 NOSIG

Time: 23:50 (23:50 UTC)

Forecast

The report was made 50 minutes ago, at 23:00 UTC
Forecast valid from 29 at 00 UTC to 30 at 06 UTC
Wind 6 kt from variable directions
Visibility: 3500 m
haze
Temporary
from 29 at 06 UTC to 29 at 10 UTC
Visibility: 2500 m
haze
Becoming
from 29 at 12 UTC to 29 at 14 UTC
Visibility: 6000 m
Temporary
from 29 at 17 UTC to 29 at 21 UTC
Visibility: 3500 m
haze

TAF: DFFD 282300Z 2900/3006 VRB06KT 3500 HZ NSC TEMPO 2906/2910 2500 HZ BECMG 2912/2914 6000 NSW TEMPO 2917/2921 3500 HZ

Weather observations and forecasts of more than 4000 airports (METAR and TAF reports).

The available stations are represented by yellow and red dots on the map.

Hover mouse over dot to see the name of the station.

Then click to see weather observations and forecasts.

To change the map : click on the green buttons with a black cross to zoom in, on the green button with a dash to zoom out, or on the green arrows for adjacent maps.


METAR-TAF: